sensor_id;sensor_type;location;lat;lon;timestamp;P1;durP1;ratioP1;P2;durP2;ratioP2
10880;SDS011;5493;48.884;8.338;2022-12-18T00:01:49;26.37;;;11.47;;
10880;SDS011;5493;48.884;8.338;2022-12-18T00:04:16;33.07;;;13.63;;
10880;SDS011;5493;48.884;8.338;2022-12-18T00:06:48;27.67;;;13.03;;
10880;SDS011;5493;48.884;8.338;2022-12-18T00:09:15;28.67;;;12.00;;
10880;SDS011;5493;48.884;8.338;2022-12-18T00:11:42;26.80;;;13.80;;
10880;SDS011;5493;48.884;8.338;2022-12-18T00:14:09;41.53;;;16.40;;
10880;SDS011;5493;48.884;8.338;2022-12-18T00:16:38;37.57;;;16.30;;
10880;SDS011;5493;48.884;8.338;2022-12-18T00:19:06;30.37;;;13.70;;
10880;SDS011;5493;48.884;8.338;2022-12-18T00:21:33;27.73;;;13.10;;
10880;SDS011;5493;48.884;8.338;2022-12-18T00:24:01;24.03;;;11.37;;
10880;SDS011;5493;48.884;8.338;2022-12-18T00:26:28;18.67;;;8.07;;
10880;SDS011;5493;48.884;8.338;2022-12-18T00:28:58;25.03;;;10.57;;
10880;SDS011;5493;48.884;8.338;2022-12-18T00:31:25;23.67;;;10.30;;
10880;SDS011;5493;48.884;8.338;2022-12-18T00:33:53;26.57;;;11.97;;
10880;SDS011;5493;48.884;8.338;2022-12-18T00:36:20;23.00;;;8.47;;
10880;SDS011;5493;48.884;8.338;2022-12-18T00:38:48;22.70;;;9.70;;
10880;SDS011;5493;48.884;8.338;2022-12-18T00:41:17;19.23;;;8.97;;
10880;SDS011;5493;48.884;8.338;2022-12-18T00:43:58;28.13;;;10.77;;
10880;SDS011;5493;48.884;8.338;2022-12-18T00:46:25;21.97;;;10.13;;
10880;SDS011;5493;48.884;8.338;2022-12-18T00:48:51;27.63;;;10.53;;
10880;SDS011;5493;48.884;8.338;2022-12-18T00:51:18;22.43;;;10.17;;
10880;SDS011;5493;48.884;8.338;2022-12-18T00:53:44;26.87;;;9.37;;
10880;SDS011;5493;48.884;8.338;2022-12-18T00:56:11;19.53;;;7.57;;
10880;SDS011;5493;48.884;8.338;2022-12-18T00:58:39;33.97;;;12.23;;
10880;SDS011;5493;48.884;8.338;2022-12-18T01:01:05;25.33;;;11.03;;
10880;SDS011;5493;48.884;8.338;2022-12-18T01:03:33;15.10;;;8.80;;
10880;SDS011;5493;48.884;8.338;2022-12-18T01:06:04;21.20;;;10.73;;
10880;SDS011;5493;48.884;8.338;2022-12-18T01:08:32;18.77;;;9.00;;
10880;SDS011;5493;48.884;8.338;2022-12-18T01:10:59;25.43;;;11.17;;
10880;SDS011;5493;48.884;8.338;2022-12-18T01:13:25;21.57;;;9.87;;
10880;SDS011;5493;48.884;8.338;2022-12-18T01:15:53;25.47;;;11.23;;
10880;SDS011;5493;48.884;8.338;2022-12-18T01:18:20;23.47;;;11.23;;
10880;SDS011;5493;48.884;8.338;2022-12-18T01:20:46;26.63;;;9.67;;
10880;SDS011;5493;48.884;8.338;2022-12-18T01:23:13;25.47;;;11.30;;
10880;SDS011;5493;48.884;8.338;2022-12-18T01:25:39;17.77;;;8.67;;
10880;SDS011;5493;48.884;8.338;2022-12-18T01:28:06;20.37;;;9.00;;
10880;SDS011;5493;48.884;8.338;2022-12-18T01:30:32;16.80;;;7.67;;
10880;SDS011;5493;48.884;8.338;2022-12-18T01:33:00;24.40;;;8.50;;
10880;SDS011;5493;48.884;8.338;2022-12-18T01:35:26;12.83;;;6.83;;
10880;SDS011;5493;48.884;8.338;2022-12-18T01:37:53;13.53;;;5.53;;
10880;SDS011;5493;48.884;8.338;2022-12-18T01:40:20;21.53;;;9.80;;
10880;SDS011;5493;48.884;8.338;2022-12-18T01:42:49;26.00;;;9.40;;
10880;SDS011;5493;48.884;8.338;2022-12-18T01:45:24;21.30;;;10.03;;
10880;SDS011;5493;48.884;8.338;2022-12-18T01:47:53;25.40;;;8.43;;
10880;SDS011;5493;48.884;8.338;2022-12-18T01:50:25;26.73;;;10.53;;
10880;SDS011;5493;48.884;8.338;2022-12-18T01:52:55;22.20;;;9.87;;
10880;SDS011;5493;48.884;8.338;2022-12-18T01:55:24;20.27;;;9.87;;
10880;SDS011;5493;48.884;8.338;2022-12-18T01:57:54;27.57;;;9.67;;
10880;SDS011;5493;48.884;8.338;2022-12-18T02:00:22;21.20;;;10.50;;
10880;SDS011;5493;48.884;8.338;2022-12-18T02:02:51;24.83;;;10.63;;
10880;SDS011;5493;48.884;8.338;2022-12-18T02:05:19;26.37;;;11.77;;
10880;SDS011;5493;48.884;8.338;2022-12-18T02:07:58;20.90;;;9.03;;
10880;SDS011;5493;48.884;8.338;2022-12-18T02:10:32;24.00;;;11.90;;
10880;SDS011;5493;48.884;8.338;2022-12-18T02:13:03;20.20;;;10.03;;
10880;SDS011;5493;48.884;8.338;2022-12-18T02:15:39;23.47;;;10.07;;
10880;SDS011;5493;48.884;8.338;2022-12-18T02:18:09;24.27;;;11.03;;
10880;SDS011;5493;48.884;8.338;2022-12-18T02:20:41;21.27;;;9.37;;
10880;SDS011;5493;48.884;8.338;2022-12-18T02:23:17;40.13;;;15.77;;
10880;SDS011;5493;48.884;8.338;2022-12-18T02:26:01;25.23;;;12.03;;
10880;SDS011;5493;48.884;8.338;2022-12-18T02:28:38;17.53;;;9.17;;
10880;SDS011;5493;48.884;8.338;2022-12-18T02:31:10;19.67;;;7.57;;
10880;SDS011;5493;48.884;8.338;2022-12-18T02:33:39;23.17;;;8.67;;
10880;SDS011;5493;48.884;8.338;2022-12-18T02:36:08;26.70;;;10.63;;
10880;SDS011;5493;48.884;8.338;2022-12-18T02:38:36;22.43;;;9.80;;
10880;SDS011;5493;48.884;8.338;2022-12-18T02:41:05;20.00;;;8.47;;
10880;SDS011;5493;48.884;8.338;2022-12-18T02:43:33;29.27;;;10.17;;
10880;SDS011;5493;48.884;8.338;2022-12-18T02:46:00;22.20;;;9.80;;
10880;SDS011;5493;48.884;8.338;2022-12-18T02:48:57;18.43;;;8.60;;
10880;SDS011;5493;48.884;8.338;2022-12-18T02:51:33;20.27;;;8.03;;
10880;SDS011;5493;48.884;8.338;2022-12-18T02:54:13;22.80;;;10.70;;
10880;SDS011;5493;48.884;8.338;2022-12-18T02:56:50;23.23;;;9.83;;
10880;SDS011;5493;48.884;8.338;2022-12-18T02:59:21;26.67;;;12.10;;
10880;SDS011;5493;48.884;8.338;2022-12-18T03:01:54;37.67;;;13.20;;
10880;SDS011;5493;48.884;8.338;2022-12-18T03:04:25;33.17;;;12.20;;
10880;SDS011;5493;48.884;8.338;2022-12-18T03:06:54;24.90;;;9.60;;
10880;SDS011;5493;48.884;8.338;2022-12-18T03:09:24;22.67;;;10.93;;
10880;SDS011;5493;48.884;8.338;2022-12-18T03:11:58;23.37;;;9.37;;
10880;SDS011;5493;48.884;8.338;2022-12-18T03:14:48;21.60;;;9.63;;
10880;SDS011;5493;48.884;8.338;2022-12-18T03:17:20;38.93;;;12.37;;
10880;SDS011;5493;48.884;8.338;2022-12-18T03:19:51;19.70;;;8.03;;
10880;SDS011;5493;48.884;8.338;2022-12-18T03:22:19;18.83;;;8.63;;
10880;SDS011;5493;48.884;8.338;2022-12-18T03:24:47;19.00;;;7.20;;
10880;SDS011;5493;48.884;8.338;2022-12-18T03:27:17;18.57;;;8.53;;
10880;SDS011;5493;48.884;8.338;2022-12-18T03:29:47;25.53;;;11.47;;
10880;SDS011;5493;48.884;8.338;2022-12-18T03:32:17;20.63;;;8.77;;
10880;SDS011;5493;48.884;8.338;2022-12-18T03:34:47;23.43;;;10.60;;
10880;SDS011;5493;48.884;8.338;2022-12-18T03:37:16;19.13;;;7.67;;
10880;SDS011;5493;48.884;8.338;2022-12-18T03:39:43;24.70;;;10.97;;
10880;SDS011;5493;48.884;8.338;2022-12-18T03:42:10;19.57;;;8.73;;
10880;SDS011;5493;48.884;8.338;2022-12-18T03:44:52;17.90;;;8.43;;
10880;SDS011;5493;48.884;8.338;2022-12-18T03:47:25;21.53;;;8.90;;
10880;SDS011;5493;48.884;8.338;2022-12-18T03:49:56;27.93;;;11.83;;
10880;SDS011;5493;48.884;8.338;2022-12-18T03:52:27;22.20;;;8.77;;
10880;SDS011;5493;48.884;8.338;2022-12-18T03:54:58;29.17;;;13.40;;
10880;SDS011;5493;48.884;8.338;2022-12-18T03:57:29;35.57;;;13.43;;
10880;SDS011;5493;48.884;8.338;2022-12-18T03:59:58;32.27;;;12.23;;
10880;SDS011;5493;48.884;8.338;2022-12-18T04:02:28;28.87;;;13.00;;
10880;SDS011;5493;48.884;8.338;2022-12-18T04:04:57;27.40;;;9.70;;
10880;SDS011;5493;48.884;8.338;2022-12-18T04:07:27;31.00;;;12.47;;
10880;SDS011;5493;48.884;8.338;2022-12-18T04:09:56;28.03;;;11.93;;
10880;SDS011;5493;48.884;8.338;2022-12-18T04:12:24;21.17;;;9.27;;
10880;SDS011;5493;48.884;8.338;2022-12-18T04:14:53;30.57;;;12.60;;
10880;SDS011;5493;48.884;8.338;2022-12-18T04:17:20;36.40;;;12.53;;
10880;SDS011;5493;48.884;8.338;2022-12-18T04:19:47;26.80;;;11.97;;
10880;SDS011;5493;48.884;8.338;2022-12-18T04:22:14;25.23;;;9.97;;
10880;SDS011;5493;48.884;8.338;2022-12-18T04:24:40;36.10;;;14.30;;
10880;SDS011;5493;48.884;8.338;2022-12-18T04:27:07;30.23;;;12.87;;
10880;SDS011;5493;48.884;8.338;2022-12-18T04:29:33;35.57;;;13.60;;
10880;SDS011;5493;48.884;8.338;2022-12-18T04:32:01;33.83;;;11.87;;
10880;SDS011;5493;48.884;8.338;2022-12-18T04:34:28;31.70;;;13.57;;
10880;SDS011;5493;48.884;8.338;2022-12-18T04:36:54;28.70;;;12.63;;
10880;SDS011;5493;48.884;8.338;2022-12-18T04:39:21;24.67;;;10.50;;
10880;SDS011;5493;48.884;8.338;2022-12-18T04:41:47;30.23;;;12.13;;
10880;SDS011;5493;48.884;8.338;2022-12-18T04:44:14;35.77;;;13.23;;
10880;SDS011;5493;48.884;8.338;2022-12-18T04:46:41;27.27;;;11.70;;
10880;SDS011;5493;48.884;8.338;2022-12-18T04:49:09;29.10;;;12.33;;
10880;SDS011;5493;48.884;8.338;2022-12-18T04:51:35;21.77;;;10.67;;
10880;SDS011;5493;48.884;8.338;2022-12-18T04:54:02;28.47;;;11.40;;
10880;SDS011;5493;48.884;8.338;2022-12-18T04:56:30;27.73;;;11.60;;
10880;SDS011;5493;48.884;8.338;2022-12-18T04:58:57;33.03;;;13.53;;
10880;SDS011;5493;48.884;8.338;2022-12-18T05:01:24;32.60;;;12.63;;
10880;SDS011;5493;48.884;8.338;2022-12-18T05:03:51;30.10;;;9.97;;
10880;SDS011;5493;48.884;8.338;2022-12-18T05:06:19;21.93;;;9.53;;
10880;SDS011;5493;48.884;8.338;2022-12-18T05:08:45;36.10;;;14.67;;
10880;SDS011;5493;48.884;8.338;2022-12-18T05:11:13;24.27;;;10.20;;
10880;SDS011;5493;48.884;8.338;2022-12-18T05:13:41;28.83;;;12.13;;
10880;SDS011;5493;48.884;8.338;2022-12-18T05:16:08;16.70;;;8.50;;
10880;SDS011;5493;48.884;8.338;2022-12-18T05:18:35;39.37;;;15.57;;
10880;SDS011;5493;48.884;8.338;2022-12-18T05:21:01;21.97;;;9.30;;
10880;SDS011;5493;48.884;8.338;2022-12-18T05:23:30;25.93;;;10.57;;
10880;SDS011;5493;48.884;8.338;2022-12-18T05:25:57;23.77;;;10.80;;
10880;SDS011;5493;48.884;8.338;2022-12-18T05:28:25;30.00;;;11.60;;
10880;SDS011;5493;48.884;8.338;2022-12-18T05:30:55;27.77;;;13.00;;
10880;SDS011;5493;48.884;8.338;2022-12-18T05:33:23;27.57;;;11.40;;
10880;SDS011;5493;48.884;8.338;2022-12-18T05:35:51;32.43;;;13.07;;
10880;SDS011;5493;48.884;8.338;2022-12-18T05:38:18;29.50;;;12.97;;
10880;SDS011;5493;48.884;8.338;2022-12-18T05:40:46;33.00;;;13.10;;
10880;SDS011;5493;48.884;8.338;2022-12-18T05:43:13;18.73;;;8.53;;
10880;SDS011;5493;48.884;8.338;2022-12-18T05:45:40;32.50;;;13.13;;
10880;SDS011;5493;48.884;8.338;2022-12-18T05:48:07;36.70;;;14.23;;
10880;SDS011;5493;48.884;8.338;2022-12-18T05:50:37;23.07;;;10.10;;
10880;SDS011;5493;48.884;8.338;2022-12-18T05:53:05;28.80;;;12.07;;
10880;SDS011;5493;48.884;8.338;2022-12-18T05:55:32;24.50;;;9.83;;
10880;SDS011;5493;48.884;8.338;2022-12-18T05:58:00;24.83;;;10.17;;
10880;SDS011;5493;48.884;8.338;2022-12-18T06:00:27;25.80;;;12.00;;
10880;SDS011;5493;48.884;8.338;2022-12-18T06:02:54;27.07;;;10.43;;
10880;SDS011;5493;48.884;8.338;2022-12-18T06:05:20;24.17;;;10.07;;
10880;SDS011;5493;48.884;8.338;2022-12-18T06:07:47;26.60;;;10.70;;
10880;SDS011;5493;48.884;8.338;2022-12-18T06:10:14;22.33;;;8.80;;
10880;SDS011;5493;48.884;8.338;2022-12-18T06:12:40;26.83;;;8.83;;
10880;SDS011;5493;48.884;8.338;2022-12-18T06:15:09;23.83;;;9.53;;
10880;SDS011;5493;48.884;8.338;2022-12-18T06:17:36;22.00;;;10.13;;
10880;SDS011;5493;48.884;8.338;2022-12-18T06:20:03;20.90;;;9.97;;
10880;SDS011;5493;48.884;8.338;2022-12-18T06:22:31;19.03;;;8.87;;
10880;SDS011;5493;48.884;8.338;2022-12-18T06:24:58;35.87;;;12.07;;
10880;SDS011;5493;48.884;8.338;2022-12-18T06:27:25;22.23;;;10.57;;
10880;SDS011;5493;48.884;8.338;2022-12-18T06:29:51;23.63;;;11.20;;
10880;SDS011;5493;48.884;8.338;2022-12-18T06:32:19;24.77;;;10.00;;
10880;SDS011;5493;48.884;8.338;2022-12-18T06:34:46;27.70;;;11.83;;
10880;SDS011;5493;48.884;8.338;2022-12-18T06:37:12;29.37;;;11.60;;
10880;SDS011;5493;48.884;8.338;2022-12-18T06:39:39;31.03;;;13.43;;
10880;SDS011;5493;48.884;8.338;2022-12-18T06:42:06;33.00;;;13.70;;
10880;SDS011;5493;48.884;8.338;2022-12-18T06:44:32;32.07;;;12.87;;
10880;SDS011;5493;48.884;8.338;2022-12-18T06:46:59;35.83;;;15.00;;
10880;SDS011;5493;48.884;8.338;2022-12-18T06:49:27;28.77;;;13.27;;
10880;SDS011;5493;48.884;8.338;2022-12-18T06:51:53;37.37;;;15.63;;
10880;SDS011;5493;48.884;8.338;2022-12-18T06:54:20;32.90;;;13.57;;
10880;SDS011;5493;48.884;8.338;2022-12-18T06:56:46;29.53;;;11.43;;
10880;SDS011;5493;48.884;8.338;2022-12-18T06:59:13;33.57;;;14.07;;
10880;SDS011;5493;48.884;8.338;2022-12-18T07:01:40;25.40;;;11.50;;
10880;SDS011;5493;48.884;8.338;2022-12-18T07:04:07;21.60;;;9.60;;
10880;SDS011;5493;48.884;8.338;2022-12-18T07:06:34;31.57;;;13.50;;
10880;SDS011;5493;48.884;8.338;2022-12-18T07:09:01;30.90;;;12.73;;
10880;SDS011;5493;48.884;8.338;2022-12-18T07:11:28;36.03;;;15.40;;
10880;SDS011;5493;48.884;8.338;2022-12-18T07:13:54;35.00;;;11.60;;
10880;SDS011;5493;48.884;8.338;2022-12-18T07:16:21;29.70;;;12.03;;
10880;SDS011;5493;48.884;8.338;2022-12-18T07:18:48;18.93;;;8.83;;
10880;SDS011;5493;48.884;8.338;2022-12-18T07:21:15;28.70;;;12.37;;
10880;SDS011;5493;48.884;8.338;2022-12-18T07:23:44;27.17;;;10.03;;
10880;SDS011;5493;48.884;8.338;2022-12-18T07:26:13;29.23;;;11.10;;
10880;SDS011;5493;48.884;8.338;2022-12-18T07:28:41;29.83;;;11.63;;
10880;SDS011;5493;48.884;8.338;2022-12-18T07:31:09;26.47;;;11.20;;
10880;SDS011;5493;48.884;8.338;2022-12-18T07:33:37;28.33;;;13.33;;
10880;SDS011;5493;48.884;8.338;2022-12-18T07:36:04;35.73;;;16.17;;
10880;SDS011;5493;48.884;8.338;2022-12-18T07:41:52;30.83;;;12.73;;
10880;SDS011;5493;48.884;8.338;2022-12-18T07:44:33;24.13;;;11.67;;
10880;SDS011;5493;48.884;8.338;2022-12-18T07:46:59;34.17;;;13.17;;
10880;SDS011;5493;48.884;8.338;2022-12-18T07:49:26;37.23;;;14.23;;
10880;SDS011;5493;48.884;8.338;2022-12-18T07:51:53;31.53;;;13.13;;
10880;SDS011;5493;48.884;8.338;2022-12-18T07:54:21;23.13;;;11.13;;
10880;SDS011;5493;48.884;8.338;2022-12-18T07:56:47;29.50;;;12.93;;
10880;SDS011;5493;48.884;8.338;2022-12-18T07:59:15;28.27;;;10.17;;
10880;SDS011;5493;48.884;8.338;2022-12-18T08:01:41;26.80;;;11.57;;
10880;SDS011;5493;48.884;8.338;2022-12-18T08:04:08;21.43;;;9.00;;
10880;SDS011;5493;48.884;8.338;2022-12-18T08:06:35;22.30;;;9.73;;
10880;SDS011;5493;48.884;8.338;2022-12-18T08:09:01;23.00;;;9.37;;
10880;SDS011;5493;48.884;8.338;2022-12-18T08:11:28;21.30;;;9.10;;
10880;SDS011;5493;48.884;8.338;2022-12-18T08:13:55;21.47;;;9.43;;
10880;SDS011;5493;48.884;8.338;2022-12-18T08:16:23;22.93;;;9.00;;
10880;SDS011;5493;48.884;8.338;2022-12-18T08:18:51;26.77;;;10.37;;
10880;SDS011;5493;48.884;8.338;2022-12-18T08:21:18;20.60;;;8.27;;
10880;SDS011;5493;48.884;8.338;2022-12-18T08:23:47;19.67;;;8.77;;
10880;SDS011;5493;48.884;8.338;2022-12-18T08:26:14;17.80;;;8.00;;
10880;SDS011;5493;48.884;8.338;2022-12-18T08:28:41;23.50;;;11.37;;
10880;SDS011;5493;48.884;8.338;2022-12-18T08:31:08;25.97;;;9.93;;
10880;SDS011;5493;48.884;8.338;2022-12-18T08:33:37;22.63;;;9.93;;
10880;SDS011;5493;48.884;8.338;2022-12-18T08:36:05;21.43;;;8.07;;
10880;SDS011;5493;48.884;8.338;2022-12-18T08:38:32;23.47;;;8.70;;
10880;SDS011;5493;48.884;8.338;2022-12-18T08:40:59;24.83;;;10.20;;
10880;SDS011;5493;48.884;8.338;2022-12-18T08:43:26;24.67;;;9.70;;
10880;SDS011;5493;48.884;8.338;2022-12-18T08:46:10;23.27;;;9.40;;
10880;SDS011;5493;48.884;8.338;2022-12-18T08:48:38;24.53;;;10.00;;
10880;SDS011;5493;48.884;8.338;2022-12-18T08:51:05;24.23;;;11.17;;
10880;SDS011;5493;48.884;8.338;2022-12-18T08:53:31;32.67;;;13.50;;
10880;SDS011;5493;48.884;8.338;2022-12-18T08:55:58;27.07;;;11.27;;
10880;SDS011;5493;48.884;8.338;2022-12-18T08:58:24;25.20;;;10.90;;
10880;SDS011;5493;48.884;8.338;2022-12-18T09:00:51;32.13;;;12.57;;
10880;SDS011;5493;48.884;8.338;2022-12-18T09:03:18;22.90;;;10.80;;
10880;SDS011;5493;48.884;8.338;2022-12-18T09:05:48;25.10;;;9.97;;
10880;SDS011;5493;48.884;8.338;2022-12-18T09:08:15;28.20;;;10.80;;
10880;SDS011;5493;48.884;8.338;2022-12-18T09:10:41;24.70;;;10.80;;
10880;SDS011;5493;48.884;8.338;2022-12-18T09:13:09;27.37;;;10.37;;
10880;SDS011;5493;48.884;8.338;2022-12-18T09:15:39;20.83;;;9.77;;
10880;SDS011;5493;48.884;8.338;2022-12-18T09:18:06;27.87;;;11.10;;
10880;SDS011;5493;48.884;8.338;2022-12-18T09:20:33;24.17;;;10.73;;
10880;SDS011;5493;48.884;8.338;2022-12-18T09:23:01;36.23;;;13.93;;
10880;SDS011;5493;48.884;8.338;2022-12-18T09:25:28;27.63;;;13.00;;
10880;SDS011;5493;48.884;8.338;2022-12-18T09:27:57;27.90;;;12.30;;
10880;SDS011;5493;48.884;8.338;2022-12-18T09:30:24;25.37;;;10.00;;
10880;SDS011;5493;48.884;8.338;2022-12-18T09:32:50;31.13;;;12.03;;
10880;SDS011;5493;48.884;8.338;2022-12-18T09:35:20;30.77;;;14.60;;
10880;SDS011;5493;48.884;8.338;2022-12-18T09:37:47;30.47;;;12.90;;
10880;SDS011;5493;48.884;8.338;2022-12-18T09:40:15;31.20;;;13.97;;
10880;SDS011;5493;48.884;8.338;2022-12-18T09:42:44;28.87;;;12.80;;
10880;SDS011;5493;48.884;8.338;2022-12-18T09:45:14;29.30;;;11.87;;
10880;SDS011;5493;48.884;8.338;2022-12-18T09:47:42;30.63;;;12.97;;
10880;SDS011;5493;48.884;8.338;2022-12-18T09:50:16;33.93;;;15.13;;
10880;SDS011;5493;48.884;8.338;2022-12-18T09:52:50;23.93;;;10.20;;
10880;SDS011;5493;48.884;8.338;2022-12-18T09:55:23;28.07;;;11.07;;
10880;SDS011;5493;48.884;8.338;2022-12-18T09:57:55;34.07;;;13.40;;
10880;SDS011;5493;48.884;8.338;2022-12-18T10:00:26;31.23;;;12.83;;
10880;SDS011;5493;48.884;8.338;2022-12-18T10:02:53;27.80;;;11.10;;
10880;SDS011;5493;48.884;8.338;2022-12-18T10:05:28;26.37;;;11.57;;
10880;SDS011;5493;48.884;8.338;2022-12-18T10:08:04;24.47;;;10.47;;
10880;SDS011;5493;48.884;8.338;2022-12-18T10:10:39;30.90;;;13.03;;
10880;SDS011;5493;48.884;8.338;2022-12-18T10:13:15;27.93;;;10.80;;
10880;SDS011;5493;48.884;8.338;2022-12-18T10:15:53;28.53;;;11.30;;
10880;SDS011;5493;48.884;8.338;2022-12-18T10:18:29;23.83;;;9.00;;
10880;SDS011;5493;48.884;8.338;2022-12-18T10:21:06;30.70;;;11.83;;
10880;SDS011;5493;48.884;8.338;2022-12-18T10:23:38;34.97;;;14.93;;
10880;SDS011;5493;48.884;8.338;2022-12-18T10:26:11;37.33;;;15.97;;
10880;SDS011;5493;48.884;8.338;2022-12-18T10:28:38;31.47;;;12.70;;
10880;SDS011;5493;48.884;8.338;2022-12-18T10:31:06;31.63;;;13.03;;
10880;SDS011;5493;48.884;8.338;2022-12-18T10:33:33;29.67;;;14.07;;
10880;SDS011;5493;48.884;8.338;2022-12-18T10:36:00;30.40;;;13.00;;
10880;SDS011;5493;48.884;8.338;2022-12-18T10:38:28;27.23;;;11.93;;
10880;SDS011;5493;48.884;8.338;2022-12-18T10:40:57;31.07;;;12.33;;
10880;SDS011;5493;48.884;8.338;2022-12-18T10:43:27;37.60;;;15.83;;
10880;SDS011;5493;48.884;8.338;2022-12-18T10:45:59;33.07;;;15.63;;
10880;SDS011;5493;48.884;8.338;2022-12-18T10:48:32;26.43;;;10.60;;
10880;SDS011;5493;48.884;8.338;2022-12-18T10:51:00;29.57;;;11.97;;
10880;SDS011;5493;48.884;8.338;2022-12-18T10:53:27;33.50;;;14.43;;
10880;SDS011;5493;48.884;8.338;2022-12-18T10:55:57;27.10;;;11.97;;
10880;SDS011;5493;48.884;8.338;2022-12-18T10:58:25;25.80;;;12.33;;
10880;SDS011;5493;48.884;8.338;2022-12-18T11:01:01;28.60;;;10.73;;
10880;SDS011;5493;48.884;8.338;2022-12-18T11:03:31;33.10;;;12.03;;
10880;SDS011;5493;48.884;8.338;2022-12-18T11:06:05;25.77;;;10.67;;
10880;SDS011;5493;48.884;8.338;2022-12-18T11:08:33;26.80;;;11.57;;
10880;SDS011;5493;48.884;8.338;2022-12-18T11:11:00;30.67;;;11.23;;
10880;SDS011;5493;48.884;8.338;2022-12-18T11:13:29;28.93;;;10.67;;
10880;SDS011;5493;48.884;8.338;2022-12-18T11:15:57;26.93;;;10.47;;
10880;SDS011;5493;48.884;8.338;2022-12-18T11:18:25;30.23;;;11.87;;
10880;SDS011;5493;48.884;8.338;2022-12-18T11:20:54;28.33;;;12.00;;
10880;SDS011;5493;48.884;8.338;2022-12-18T11:23:23;24.87;;;10.23;;
10880;SDS011;5493;48.884;8.338;2022-12-18T11:25:51;21.00;;;8.60;;
10880;SDS011;5493;48.884;8.338;2022-12-18T11:28:34;24.40;;;9.87;;
10880;SDS011;5493;48.884;8.338;2022-12-18T11:31:11;30.50;;;12.50;;
10880;SDS011;5493;48.884;8.338;2022-12-18T11:33:46;23.37;;;9.90;;
10880;SDS011;5493;48.884;8.338;2022-12-18T11:36:19;22.87;;;10.00;;
10880;SDS011;5493;48.884;8.338;2022-12-18T11:38:48;24.40;;;10.30;;
10880;SDS011;5493;48.884;8.338;2022-12-18T11:41:21;26.07;;;11.20;;
10880;SDS011;5493;48.884;8.338;2022-12-18T11:44:14;29.27;;;10.23;;
10880;SDS011;5493;48.884;8.338;2022-12-18T11:46:45;27.10;;;11.10;;
10880;SDS011;5493;48.884;8.338;2022-12-18T11:49:17;26.17;;;10.50;;
10880;SDS011;5493;48.884;8.338;2022-12-18T11:51:49;32.97;;;10.97;;
10880;SDS011;5493;48.884;8.338;2022-12-18T11:54:21;22.37;;;9.73;;
10880;SDS011;5493;48.884;8.338;2022-12-18T11:56:49;23.87;;;11.13;;
10880;SDS011;5493;48.884;8.338;2022-12-18T11:59:23;24.40;;;10.03;;
10880;SDS011;5493;48.884;8.338;2022-12-18T12:01:59;22.57;;;10.77;;
10880;SDS011;5493;48.884;8.338;2022-12-18T12:04:43;26.17;;;10.00;;
10880;SDS011;5493;48.884;8.338;2022-12-18T12:07:21;21.47;;;10.90;;
10880;SDS011;5493;48.884;8.338;2022-12-18T12:09:54;33.37;;;13.27;;
10880;SDS011;5493;48.884;8.338;2022-12-18T12:12:32;27.53;;;9.80;;
10880;SDS011;5493;48.884;8.338;2022-12-18T12:15:16;31.73;;;12.17;;
10880;SDS011;5493;48.884;8.338;2022-12-18T12:17:50;28.50;;;12.27;;
10880;SDS011;5493;48.884;8.338;2022-12-18T12:20:25;32.53;;;13.27;;
10880;SDS011;5493;48.884;8.338;2022-12-18T12:23:02;31.03;;;13.93;;
10880;SDS011;5493;48.884;8.338;2022-12-18T12:25:39;31.67;;;13.13;;
10880;SDS011;5493;48.884;8.338;2022-12-18T12:28:14;29.57;;;11.20;;
10880;SDS011;5493;48.884;8.338;2022-12-18T12:31:03;31.80;;;12.77;;
10880;SDS011;5493;48.884;8.338;2022-12-18T12:33:40;20.87;;;10.67;;
10880;SDS011;5493;48.884;8.338;2022-12-18T12:36:17;29.67;;;13.70;;
10880;SDS011;5493;48.884;8.338;2022-12-18T12:38:55;35.30;;;15.60;;
10880;SDS011;5493;48.884;8.338;2022-12-18T12:41:26;34.33;;;14.40;;
10880;SDS011;5493;48.884;8.338;2022-12-18T12:44:16;33.73;;;12.67;;
10880;SDS011;5493;48.884;8.338;2022-12-18T12:46:49;26.63;;;13.03;;
10880;SDS011;5493;48.884;8.338;2022-12-18T12:49:20;28.37;;;10.80;;
10880;SDS011;5493;48.884;8.338;2022-12-18T12:51:53;23.97;;;10.83;;
10880;SDS011;5493;48.884;8.338;2022-12-18T12:54:27;26.87;;;10.97;;
10880;SDS011;5493;48.884;8.338;2022-12-18T12:56:56;25.03;;;11.17;;
10880;SDS011;5493;48.884;8.338;2022-12-18T12:59:31;27.93;;;11.80;;
10880;SDS011;5493;48.884;8.338;2022-12-18T13:02:09;28.23;;;12.13;;
10880;SDS011;5493;48.884;8.338;2022-12-18T13:04:45;31.33;;;12.53;;
10880;SDS011;5493;48.884;8.338;2022-12-18T13:07:17;30.90;;;11.83;;
10880;SDS011;5493;48.884;8.338;2022-12-18T13:12:46;35.80;;;14.43;;
10880;SDS011;5493;48.884;8.338;2022-12-18T13:15:23;36.70;;;13.97;;
10880;SDS011;5493;48.884;8.338;2022-12-18T13:18:04;26.77;;;11.70;;
10880;SDS011;5493;48.884;8.338;2022-12-18T13:20:36;28.00;;;11.83;;
10880;SDS011;5493;48.884;8.338;2022-12-18T13:23:19;28.93;;;11.73;;
10880;SDS011;5493;48.884;8.338;2022-12-18T13:25:53;26.27;;;9.33;;
10880;SDS011;5493;48.884;8.338;2022-12-18T13:28:21;31.40;;;12.47;;
10880;SDS011;5493;48.884;8.338;2022-12-18T13:30:53;33.50;;;13.67;;
10880;SDS011;5493;48.884;8.338;2022-12-18T13:36:27;35.30;;;15.40;;
10880;SDS011;5493;48.884;8.338;2022-12-18T13:39:09;32.33;;;15.03;;
10880;SDS011;5493;48.884;8.338;2022-12-18T13:41:51;33.27;;;12.93;;
10880;SDS011;5493;48.884;8.338;2022-12-18T13:44:31;27.97;;;12.63;;
10880;SDS011;5493;48.884;8.338;2022-12-18T13:46:59;38.63;;;16.37;;
10880;SDS011;5493;48.884;8.338;2022-12-18T13:49:31;27.37;;;14.23;;
10880;SDS011;5493;48.884;8.338;2022-12-18T13:52:14;35.77;;;14.63;;
10880;SDS011;5493;48.884;8.338;2022-12-18T13:54:43;35.43;;;16.10;;
10880;SDS011;5493;48.884;8.338;2022-12-18T13:57:24;32.63;;;14.87;;
10880;SDS011;5493;48.884;8.338;2022-12-18T13:59:54;35.97;;;14.03;;
10880;SDS011;5493;48.884;8.338;2022-12-18T14:02:21;30.47;;;12.80;;
10880;SDS011;5493;48.884;8.338;2022-12-18T14:04:51;30.83;;;13.37;;
10880;SDS011;5493;48.884;8.338;2022-12-18T14:07:19;33.40;;;13.23;;
10880;SDS011;5493;48.884;8.338;2022-12-18T14:09:48;28.03;;;12.90;;
10880;SDS011;5493;48.884;8.338;2022-12-18T14:12:18;33.30;;;13.37;;
10880;SDS011;5493;48.884;8.338;2022-12-18T14:15:06;31.07;;;13.10;;
10880;SDS011;5493;48.884;8.338;2022-12-18T14:17:46;35.17;;;15.97;;
10880;SDS011;5493;48.884;8.338;2022-12-18T14:20:14;38.37;;;15.53;;
10880;SDS011;5493;48.884;8.338;2022-12-18T14:22:42;33.60;;;15.10;;
10880;SDS011;5493;48.884;8.338;2022-12-18T14:25:15;36.93;;;16.93;;
10880;SDS011;5493;48.884;8.338;2022-12-18T14:27:45;39.03;;;17.73;;
10880;SDS011;5493;48.884;8.338;2022-12-18T14:33:02;31.33;;;16.10;;
10880;SDS011;5493;48.884;8.338;2022-12-18T14:35:32;32.53;;;15.03;;
10880;SDS011;5493;48.884;8.338;2022-12-18T14:40:47;49.20;;;23.97;;
10880;SDS011;5493;48.884;8.338;2022-12-18T14:43:13;40.60;;;19.03;;
10880;SDS011;5493;48.884;8.338;2022-12-18T14:45:40;45.50;;;19.80;;
10880;SDS011;5493;48.884;8.338;2022-12-18T14:48:11;47.53;;;21.40;;
10880;SDS011;5493;48.884;8.338;2022-12-18T14:50:43;39.33;;;18.00;;
10880;SDS011;5493;48.884;8.338;2022-12-18T14:53:18;39.17;;;19.53;;
10880;SDS011;5493;48.884;8.338;2022-12-18T14:55:49;47.50;;;21.40;;
10880;SDS011;5493;48.884;8.338;2022-12-18T14:58:15;47.77;;;19.93;;
10880;SDS011;5493;48.884;8.338;2022-12-18T15:00:44;40.67;;;18.70;;
10880;SDS011;5493;48.884;8.338;2022-12-18T15:03:12;43.53;;;20.13;;
10880;SDS011;5493;48.884;8.338;2022-12-18T15:05:46;40.83;;;20.03;;
10880;SDS011;5493;48.884;8.338;2022-12-18T15:08:29;40.17;;;17.80;;
10880;SDS011;5493;48.884;8.338;2022-12-18T15:11:00;38.30;;;17.87;;